sensor_id;sensor_type;location;lat;lon;timestamp;pressure;altitude;pressure_sealevel;temperature;humidity
36092;BME280;22147;52.388;13.390;2022-08-01T00:01:13;100671.22;;;20.38;73.49
36092;BME280;22147;52.388;13.390;2022-08-01T00:03:41;100669.19;;;20.31;74.20
36092;BME280;22147;52.388;13.390;2022-08-01T00:06:08;100669.19;;;20.28;74.50
36092;BME280;22147;52.388;13.390;2022-08-01T00:08:35;100666.31;;;20.21;74.43
36092;BME280;22147;52.388;13.390;2022-08-01T00:11:02;100671.56;;;20.19;75.47
36092;BME280;22147;52.388;13.390;2022-08-01T00:13:30;100674.34;;;20.11;76.53
36092;BME280;22147;52.388;13.390;2022-08-01T00:15:57;100671.94;;;20.13;76.43
36092;BME280;22147;52.388;13.390;2022-08-01T00:18:24;100677.91;;;20.01;77.82
36092;BME280;22147;52.388;13.390;2022-08-01T00:20:51;100687.97;;;19.99;77.48
36092;BME280;22147;52.388;13.390;2022-08-01T00:23:18;100677.47;;;19.96;78.60
36092;BME280;22147;52.388;13.390;2022-08-01T00:25:45;100679.06;;;19.93;79.34
36092;BME280;22147;52.388;13.390;2022-08-01T00:28:12;100681.44;;;19.84;81.06
36092;BME280;22147;52.388;13.390;2022-08-01T00:30:40;100684.66;;;19.86;81.79
36092;BME280;22147;52.388;13.390;2022-08-01T00:33:07;100685.03;;;19.81;81.72
36092;BME280;22147;52.388;13.390;2022-08-01T00:35:35;100680.94;;;19.75;83.53
36092;BME280;22147;52.388;13.390;2022-08-01T00:38:02;100682.09;;;19.66;85.33
36092;BME280;22147;52.388;13.390;2022-08-01T00:40:29;100687.69;;;19.63;86.61
36092;BME280;22147;52.388;13.390;2022-08-01T00:42:56;100681.63;;;19.61;87.75
36092;BME280;22147;52.388;13.390;2022-08-01T00:45:23;100677.22;;;19.63;88.28
36092;BME280;22147;52.388;13.390;2022-08-01T00:47:50;100678.78;;;19.57;89.40
36092;BME280;22147;52.388;13.390;2022-08-01T00:50:21;100687.63;;;19.56;89.69
36092;BME280;22147;52.388;13.390;2022-08-01T00:52:51;100683.59;;;19.53;90.41
36092;BME280;22147;52.388;13.390;2022-08-01T00:55:19;100679.13;;;19.48;91.21
36092;BME280;22147;52.388;13.390;2022-08-01T00:57:49;100681.91;;;19.45;91.87
36092;BME280;22147;52.388;13.390;2022-08-01T01:00:34;100688.69;;;19.37;93.65
36092;BME280;22147;52.388;13.390;2022-08-01T01:03:21;100676.59;;;19.32;94.15
36092;BME280;22147;52.388;13.390;2022-08-01T01:06:26;100682.63;;;19.31;94.69
36092;BME280;22147;52.388;13.390;2022-08-01T01:09:42;100669.28;;;19.24;96.19
36092;BME280;22147;52.388;13.390;2022-08-01T01:12:52;100682.09;;;19.18;97.02
36092;BME280;22147;52.388;13.390;2022-08-01T01:15:46;100674.00;;;19.13;97.77
36092;BME280;22147;52.388;13.390;2022-08-01T01:18:27;100680.75;;;19.05;99.00
36092;BME280;22147;52.388;13.390;2022-08-01T01:24:37;100673.72;;;18.84;100.00
36092;BME280;22147;52.388;13.390;2022-08-01T01:27:48;100667.97;;;18.77;100.00
36092;BME280;22147;52.388;13.390;2022-08-01T01:30:28;100677.63;;;18.76;100.00
36092;BME280;22147;52.388;13.390;2022-08-01T01:33:03;100674.34;;;18.70;100.00
36092;BME280;22147;52.388;13.390;2022-08-01T01:35:41;100670.31;;;18.68;100.00
36092;BME280;22147;52.388;13.390;2022-08-01T01:38:24;100664.25;;;18.66;100.00
36092;BME280;22147;52.388;13.390;2022-08-01T01:40:57;100668.28;;;18.68;100.00
36092;BME280;22147;52.388;13.390;2022-08-01T01:43:29;100662.25;;;18.66;100.00
36092;BME280;22147;52.388;13.390;2022-08-01T01:46:02;100654.91;;;18.58;100.00
36092;BME280;22147;52.388;13.390;2022-08-01T01:48:33;100656.06;;;18.54;100.00
36092;BME280;22147;52.388;13.390;2022-08-01T01:51:04;100653.25;;;18.54;100.00
36092;BME280;22147;52.388;13.390;2022-08-01T01:53:35;100655.31;;;18.57;100.00
36092;BME280;22147;52.388;13.390;2022-08-01T01:56:03;100651.31;;;18.58;100.00
36092;BME280;22147;52.388;13.390;2022-08-01T01:58:35;100647.63;;;18.50;100.00
36092;BME280;22147;52.388;13.390;2022-08-01T02:01:06;100656.72;;;18.40;100.00
36092;BME280;22147;52.388;13.390;2022-08-01T02:03:43;100648.63;;;18.35;100.00
36092;BME280;22147;52.388;13.390;2022-08-01T02:06:15;100657.03;;;18.31;100.00
36092;BME280;22147;52.388;13.390;2022-08-01T02:08:46;100648.13;;;18.25;100.00
36092;BME280;22147;52.388;13.390;2022-08-01T02:11:15;100662.53;;;18.24;100.00
36092;BME280;22147;52.388;13.390;2022-08-01T02:13:58;100660.06;;;18.19;100.00
36092;BME280;22147;52.388;13.390;2022-08-01T02:16:33;100666.44;;;18.16;100.00
36092;BME280;22147;52.388;13.390;2022-08-01T02:19:03;100661.59;;;18.13;100.00
36092;BME280;22147;52.388;13.390;2022-08-01T02:21:39;100661.53;;;18.09;100.00
36092;BME280;22147;52.388;13.390;2022-08-01T02:24:22;100668.69;;;18.03;100.00
36092;BME280;22147;52.388;13.390;2022-08-01T02:27:06;100660.97;;;17.96;100.00
36092;BME280;22147;52.388;13.390;2022-08-01T02:30:02;100663.41;;;17.98;100.00
36092;BME280;22147;52.388;13.390;2022-08-01T02:32:43;100666.28;;;18.01;100.00
36092;BME280;22147;52.388;13.390;2022-08-01T02:35:25;100667.09;;;18.05;100.00
36092;BME280;22147;52.388;13.390;2022-08-01T02:37:57;100664.31;;;18.05;100.00
36092;BME280;22147;52.388;13.390;2022-08-01T02:40:32;100669.09;;;18.01;100.00
36092;BME280;22147;52.388;13.390;2022-08-01T02:43:05;100663.94;;;18.07;100.00
36092;BME280;22147;52.388;13.390;2022-08-01T02:45:42;100657.88;;;18.05;100.00
36092;BME280;22147;52.388;13.390;2022-08-01T02:48:17;100657.06;;;18.04;100.00
36092;BME280;22147;52.388;13.390;2022-08-01T02:50:49;100657.56;;;18.10;100.00
36092;BME280;22147;52.388;13.390;2022-08-01T02:53:23;100662.63;;;18.01;100.00
36092;BME280;22147;52.388;13.390;2022-08-01T02:56:13;100662.22;;;17.99;100.00
36092;BME280;22147;52.388;13.390;2022-08-01T02:58:44;100659.69;;;17.90;100.00
36092;BME280;22147;52.388;13.390;2022-08-01T03:01:16;100664.69;;;17.77;100.00
36092;BME280;22147;52.388;13.390;2022-08-01T03:03:46;100667.41;;;17.70;100.00
36092;BME280;22147;52.388;13.390;2022-08-01T03:06:14;100660.56;;;17.71;100.00
36092;BME280;22147;52.388;13.390;2022-08-01T03:08:44;100664.97;;;17.68;100.00
36092;BME280;22147;52.388;13.390;2022-08-01T03:11:15;100661.00;;;17.73;100.00
36092;BME280;22147;52.388;13.390;2022-08-01T03:13:45;100668.56;;;17.69;100.00
36092;BME280;22147;52.388;13.390;2022-08-01T03:16:16;100663.81;;;17.73;100.00
36092;BME280;22147;52.388;13.390;2022-08-01T03:18:48;100670.31;;;17.77;100.00
36092;BME280;22147;52.388;13.390;2022-08-01T03:21:23;100667.22;;;17.82;100.00
36092;BME280;22147;52.388;13.390;2022-08-01T03:23:53;100673.63;;;17.83;100.00
36092;BME280;22147;52.388;13.390;2022-08-01T03:26:30;100669.25;;;17.85;100.00
36092;BME280;22147;52.388;13.390;2022-08-01T03:29:10;100667.56;;;17.81;100.00
36092;BME280;22147;52.388;13.390;2022-08-01T03:31:44;100674.44;;;17.83;100.00
36092;BME280;22147;52.388;13.390;2022-08-01T03:34:15;100666.81;;;17.84;100.00
36092;BME280;22147;52.388;13.390;2022-08-01T03:36:51;100672.38;;;17.80;100.00
36092;BME280;22147;52.388;13.390;2022-08-01T03:39:31;100677.44;;;17.71;100.00
36092;BME280;22147;52.388;13.390;2022-08-01T03:42:16;100675.84;;;17.74;100.00
36092;BME280;22147;52.388;13.390;2022-08-01T03:44:54;100678.88;;;17.84;100.00
36092;BME280;22147;52.388;13.390;2022-08-01T03:47:32;100682.78;;;17.80;100.00
36092;BME280;22147;52.388;13.390;2022-08-01T03:50:13;100673.97;;;17.81;100.00
36092;BME280;22147;52.388;13.390;2022-08-01T03:52:46;100676.88;;;17.85;100.00
36092;BME280;22147;52.388;13.390;2022-08-01T03:55:17;100681.34;;;17.89;100.00
36092;BME280;22147;52.388;13.390;2022-08-01T03:57:49;100688.56;;;17.90;100.00
36092;BME280;22147;52.388;13.390;2022-08-01T04:00:18;100680.16;;;17.90;100.00
36092;BME280;22147;52.388;13.390;2022-08-01T04:02:47;100680.91;;;17.87;100.00
36092;BME280;22147;52.388;13.390;2022-08-01T04:05:17;100683.88;;;17.98;100.00
36092;BME280;22147;52.388;13.390;2022-08-01T04:07:50;100679.47;;;17.97;100.00
36092;BME280;22147;52.388;13.390;2022-08-01T04:10:25;100686.03;;;18.08;100.00
36092;BME280;22147;52.388;13.390;2022-08-01T04:12:53;100683.28;;;18.12;100.00
36092;BME280;22147;52.388;13.390;2022-08-01T04:15:21;100684.88;;;18.13;100.00
36092;BME280;22147;52.388;13.390;2022-08-01T04:17:48;100685.31;;;18.15;100.00
36092;BME280;22147;52.388;13.390;2022-08-01T04:20:15;100687.75;;;18.17;100.00
36092;BME280;22147;52.388;13.390;2022-08-01T04:22:43;100695.41;;;18.20;100.00
36092;BME280;22147;52.388;13.390;2022-08-01T04:25:28;100688.63;;;18.21;100.00
36092;BME280;22147;52.388;13.390;2022-08-01T04:28:01;100689.50;;;18.28;100.00
36092;BME280;22147;52.388;13.390;2022-08-01T04:30:34;100685.94;;;18.31;100.00
36092;BME280;22147;52.388;13.390;2022-08-01T04:33:07;100688.38;;;18.33;100.00
36092;BME280;22147;52.388;13.390;2022-08-01T04:35:39;100693.22;;;18.36;100.00
36092;BME280;22147;52.388;13.390;2022-08-01T04:38:33;100688.09;;;18.42;100.00
36092;BME280;22147;52.388;13.390;2022-08-01T04:41:09;100694.44;;;18.39;100.00
36092;BME280;22147;52.388;13.390;2022-08-01T04:43:39;100698.53;;;18.45;100.00
36092;BME280;22147;52.388;13.390;2022-08-01T04:46:11;100703.00;;;18.46;100.00
36092;BME280;22147;52.388;13.390;2022-08-01T04:48:40;100702.66;;;18.51;100.00
36092;BME280;22147;52.388;13.390;2022-08-01T04:51:15;100710.31;;;18.54;100.00
36092;BME280;22147;52.388;13.390;2022-08-01T04:53:44;100710.31;;;18.54;100.00
36092;BME280;22147;52.388;13.390;2022-08-01T04:56:15;100708.34;;;18.58;100.00
36092;BME280;22147;52.388;13.390;2022-08-01T04:58:43;100710.78;;;18.60;100.00
36092;BME280;22147;52.388;13.390;2022-08-01T05:01:11;100709.06;;;18.51;100.00
36092;BME280;22147;52.388;13.390;2022-08-01T05:03:38;100707.50;;;18.54;100.00
36092;BME280;22147;52.388;13.390;2022-08-01T05:06:06;100705.88;;;18.53;100.00
36092;BME280;22147;52.388;13.390;2022-08-01T05:08:33;100714.31;;;18.53;100.00
36092;BME280;22147;52.388;13.390;2022-08-01T05:11:00;100716.78;;;18.58;100.00
36092;BME280;22147;52.388;13.390;2022-08-01T05:13:28;100716.41;;;18.60;100.00
36092;BME280;22147;52.388;13.390;2022-08-01T05:15:55;100714.44;;;18.64;100.00
36092;BME280;22147;52.388;13.390;2022-08-01T05:18:22;100715.66;;;18.63;100.00
36092;BME280;22147;52.388;13.390;2022-08-01T05:20:54;100720.88;;;18.64;100.00
36092;BME280;22147;52.388;13.390;2022-08-01T05:23:21;100709.97;;;18.59;100.00
36092;BME280;22147;52.388;13.390;2022-08-01T05:26:11;100710.88;;;18.67;100.00
36092;BME280;22147;52.388;13.390;2022-08-01T05:28:42;100717.81;;;18.77;100.00
36092;BME280;22147;52.388;13.390;2022-08-01T05:31:09;100710.25;;;18.81;100.00
36092;BME280;22147;52.388;13.390;2022-08-01T05:33:36;100712.75;;;18.86;100.00
36092;BME280;22147;52.388;13.390;2022-08-01T05:36:04;100712.50;;;19.02;100.00
36092;BME280;22147;52.388;13.390;2022-08-01T05:38:31;100714.19;;;19.10;100.00
36092;BME280;22147;52.388;13.390;2022-08-01T05:40:58;100715.03;;;19.14;100.00
36092;BME280;22147;52.388;13.390;2022-08-01T05:43:25;100716.72;;;19.22;100.00
36092;BME280;22147;52.388;13.390;2022-08-01T05:45:55;100718.31;;;19.23;100.00
36092;BME280;22147;52.388;13.390;2022-08-01T05:48:22;100715.59;;;19.30;100.00
36092;BME280;22147;52.388;13.390;2022-08-01T05:50:49;100716.06;;;19.40;100.00
36092;BME280;22147;52.388;13.390;2022-08-01T05:53:23;100716.09;;;19.43;100.00
36092;BME280;22147;52.388;13.390;2022-08-01T05:55:51;100725.03;;;19.52;100.00
36092;BME280;22147;52.388;13.390;2022-08-01T05:58:18;100722.03;;;19.76;100.00
36092;BME280;22147;52.388;13.390;2022-08-01T06:00:45;100723.69;;;19.84;100.00
36092;BME280;22147;52.388;13.390;2022-08-01T06:03:12;100730.78;;;19.67;100.00
36092;BME280;22147;52.388;13.390;2022-08-01T06:05:40;100722.25;;;19.60;100.00
36092;BME280;22147;52.388;13.390;2022-08-01T06:08:08;100737.50;;;19.55;100.00
36092;BME280;22147;52.388;13.390;2022-08-01T06:10:35;100729.09;;;19.59;100.00
36092;BME280;22147;52.388;13.390;2022-08-01T06:13:02;100733.84;;;19.47;100.00
36092;BME280;22147;52.388;13.390;2022-08-01T06:15:32;100730.63;;;19.49;100.00
36092;BME280;22147;52.388;13.390;2022-08-01T06:17:59;100728.63;;;19.49;100.00
36092;BME280;22147;52.388;13.390;2022-08-01T06:20:27;100733.84;;;19.51;100.00
36092;BME280;22147;52.388;13.390;2022-08-01T06:22:54;100731.53;;;19.60;100.00
36092;BME280;22147;52.388;13.390;2022-08-01T06:25:22;100736.88;;;19.72;100.00
36092;BME280;22147;52.388;13.390;2022-08-01T06:27:49;100735.81;;;19.91;100.00
36092;BME280;22147;52.388;13.390;2022-08-01T06:30:16;100744.22;;;19.84;100.00
36092;BME280;22147;52.388;13.390;2022-08-01T06:32:43;100741.81;;;19.86;100.00
36092;BME280;22147;52.388;13.390;2022-08-01T06:35:10;100743.81;;;19.82;100.00
36092;BME280;22147;52.388;13.390;2022-08-01T06:37:37;100738.97;;;19.83;100.00
36092;BME280;22147;52.388;13.390;2022-08-01T06:40:08;100742.19;;;19.81;100.00
36092;BME280;22147;52.388;13.390;2022-08-01T06:42:42;100751.38;;;19.75;100.00
36092;BME280;22147;52.388;13.390;2022-08-01T06:45:12;100752.91;;;19.65;100.00
36092;BME280;22147;52.388;13.390;2022-08-01T06:47:44;100754.59;;;19.32;100.00
36092;BME280;22147;52.388;13.390;2022-08-01T06:50:17;100749.19;;;19.12;100.00
36092;BME280;22147;52.388;13.390;2022-08-01T06:52:45;100755.31;;;19.22;100.00
36092;BME280;22147;52.388;13.390;2022-08-01T06:55:12;100751.97;;;19.53;100.00
36092;BME280;22147;52.388;13.390;2022-08-01T06:57:52;100749.59;;;20.00;100.00
36092;BME280;22147;52.388;13.390;2022-08-01T07:00:22;100751.63;;;20.10;100.00
36092;BME280;22147;52.388;13.390;2022-08-01T07:02:54;100761.22;;;19.95;100.00
36092;BME280;22147;52.388;13.390;2022-08-01T07:05:23;100751.13;;;19.90;100.00
36092;BME280;22147;52.388;13.390;2022-08-01T07:07:50;100767.03;;;19.68;100.00
36092;BME280;22147;52.388;13.390;2022-08-01T07:10:17;100758.88;;;19.56;100.00
36092;BME280;22147;52.388;13.390;2022-08-01T07:12:45;100766.84;;;19.50;100.00
36092;BME280;22147;52.388;13.390;2022-08-01T07:15:12;100759.28;;;19.58;100.00
36092;BME280;22147;52.388;13.390;2022-08-01T07:17:41;100766.44;;;19.48;100.00
36092;BME280;22147;52.388;13.390;2022-08-01T07:20:12;100763.47;;;19.34;100.00
36092;BME280;22147;52.388;13.390;2022-08-01T07:22:42;100764.78;;;19.44;100.00
36092;BME280;22147;52.388;13.390;2022-08-01T07:25:13;100768.91;;;19.57;100.00
36092;BME280;22147;52.388;13.390;2022-08-01T07:27:40;100758.50;;;19.61;100.00
36092;BME280;22147;52.388;13.390;2022-08-01T07:30:07;100759.72;;;19.60;100.00
36092;BME280;22147;52.388;13.390;2022-08-01T07:32:35;100765.38;;;19.67;100.00
36092;BME280;22147;52.388;13.390;2022-08-01T07:35:03;100768.97;;;19.61;100.00
36092;BME280;22147;52.388;13.390;2022-08-01T07:37:31;100774.91;;;19.52;100.00
36092;BME280;22147;52.388;13.390;2022-08-01T07:40:17;100770.13;;;19.56;100.00
36092;BME280;22147;52.388;13.390;2022-08-01T07:42:45;100771.69;;;19.50;100.00
36092;BME280;22147;52.388;13.390;2022-08-01T07:45:14;100774.84;;;19.45;100.00
36092;BME280;22147;52.388;13.390;2022-08-01T07:47:42;100770.50;;;19.55;100.00
36092;BME280;22147;52.388;13.390;2022-08-01T07:50:09;100773.47;;;19.69;100.00
36092;BME280;22147;52.388;13.390;2022-08-01T07:52:37;100774.88;;;19.93;100.00
36092;BME280;22147;52.388;13.390;2022-08-01T07:55:05;100777.00;;;20.10;100.00
36092;BME280;22147;52.388;13.390;2022-08-01T07:57:33;100780.59;;;20.04;100.00
36092;BME280;22147;52.388;13.390;2022-08-01T08:00:01;100780.22;;;20.05;100.00
36092;BME280;22147;52.388;13.390;2022-08-01T08:02:32;100783.06;;;20.12;100.00
36092;BME280;22147;52.388;13.390;2022-08-01T08:05:00;100785.47;;;20.10;100.00
36092;BME280;22147;52.388;13.390;2022-08-01T08:07:27;100785.78;;;19.95;100.00
36092;BME280;22147;52.388;13.390;2022-08-01T08:09:54;100788.47;;;19.80;100.00
36092;BME280;22147;52.388;13.390;2022-08-01T08:12:21;100792.81;;;19.70;100.00
36092;BME280;22147;52.388;13.390;2022-08-01T08:14:56;100794.06;;;19.77;100.00
36092;BME280;22147;52.388;13.390;2022-08-01T08:17:25;100788.59;;;19.95;100.00
36092;BME280;22147;52.388;13.390;2022-08-01T08:19:53;100795.75;;;19.81;100.00
36092;BME280;22147;52.388;13.390;2022-08-01T08:22:20;100799.34;;;19.82;100.00
36092;BME280;22147;52.388;13.390;2022-08-01T08:24:47;100802.81;;;19.68;100.00
36092;BME280;22147;52.388;13.390;2022-08-01T08:27:14;100801.81;;;19.46;100.00
36092;BME280;22147;52.388;13.390;2022-08-01T08:29:42;100804.00;;;19.26;100.00
36092;BME280;22147;52.388;13.390;2022-08-01T08:32:11;100794.44;;;19.30;100.00
36092;BME280;22147;52.388;13.390;2022-08-01T08:34:38;100802.56;;;19.39;100.00
36092;BME280;22147;52.388;13.390;2022-08-01T08:37:06;100803.22;;;19.66;100.00
36092;BME280;22147;52.388;13.390;2022-08-01T08:39:35;100805.03;;;19.89;100.00
36092;BME280;22147;52.388;13.390;2022-08-01T08:42:10;100801.63;;;20.13;100.00
36092;BME280;22147;52.388;13.390;2022-08-01T08:44:42;100807.78;;;20.33;100.00
36092;BME280;22147;52.388;13.390;2022-08-01T08:47:13;100811.13;;;20.53;100.00
36092;BME280;22147;52.388;13.390;2022-08-01T08:49:48;100800.50;;;21.02;100.00
36092;BME280;22147;52.388;13.390;2022-08-01T08:52:20;100805.09;;;21.46;100.00
36092;BME280;22147;52.388;13.390;2022-08-01T08:54:50;100802.16;;;21.21;98.22
36092;BME280;22147;52.388;13.390;2022-08-01T08:57:20;100805.78;;;21.18;96.74
36092;BME280;22147;52.388;13.390;2022-08-01T08:59:49;100804.88;;;20.85;96.49
36092;BME280;22147;52.388;13.390;2022-08-01T09:02:18;100810.44;;;20.71;98.98
36092;BME280;22147;52.388;13.390;2022-08-01T09:04:49;100820.78;;;20.49;98.74
36092;BME280;22147;52.388;13.390;2022-08-01T09:07:17;100817.63;;;20.61;97.97
36092;BME280;22147;52.388;13.390;2022-08-01T09:09:44;100814.91;;;20.76;97.35
36092;BME280;22147;52.388;13.390;2022-08-01T09:12:17;100816.53;;;20.84;97.05
36092;BME280;22147;52.388;13.390;2022-08-01T09:14:47;100818.97;;;20.82;96.74
36092;BME280;22147;52.388;13.390;2022-08-01T09:17:17;100826.94;;;20.62;94.78
36092;BME280;22147;52.388;13.390;2022-08-01T09:19:53;100825.25;;;20.53;95.69
36092;BME280;22147;52.388;13.390;2022-08-01T09:22:24;100834.84;;;20.45;95.29
36092;BME280;22147;52.388;13.390;2022-08-01T09:27:37;100842.44;;;20.34;97.37
36092;BME280;22147;52.388;13.390;2022-08-01T09:30:18;100846.81;;;20.24;98.02
36092;BME280;22147;52.388;13.390;2022-08-01T09:33:03;100849.16;;;20.15;99.25
36092;BME280;22147;52.388;13.390;2022-08-01T09:35:43;100853.97;;;20.11;98.90
36092;BME280;22147;52.388;13.390;2022-08-01T09:38:23;100855.59;;;20.16;99.96
36092;BME280;22147;52.388;13.390;2022-08-01T09:41:00;100851.25;;;20.29;100.00
36092;BME280;22147;52.388;13.390;2022-08-01T09:43:30;100852.19;;;20.47;98.12
36092;BME280;22147;52.388;13.390;2022-08-01T09:46:19;100856.38;;;20.68;94.25
36092;BME280;22147;52.388;13.390;2022-08-01T09:48:57;100865.69;;;20.76;94.35
36092;BME280;22147;52.388;13.390;2022-08-01T09:54:33;100856.25;;;21.23;91.72
36092;BME280;22147;52.388;13.390;2022-08-01T09:57:19;100864.75;;;21.34;87.39
36092;BME280;22147;52.388;13.390;2022-08-01T09:59:50;100866.00;;;21.47;88.84
36092;BME280;22147;52.388;13.390;2022-08-01T10:02:38;100860.78;;;21.57;87.99
36092;BME280;22147;52.388;13.390;2022-08-01T10:05:10;100865.16;;;21.36;87.08
36092;BME280;22147;52.388;13.390;2022-08-01T10:08:00;100863.06;;;21.22;89.89
36092;BME280;22147;52.388;13.390;2022-08-01T10:10:34;100870.66;;;21.04;90.21
36092;BME280;22147;52.388;13.390;2022-08-01T10:13:04;100871.44;;;20.93;89.90
36092;BME280;22147;52.388;13.390;2022-08-01T10:15:35;100886.25;;;20.76;91.14
36092;BME280;22147;52.388;13.390;2022-08-01T10:18:06;100887.75;;;20.59;92.58
36092;BME280;22147;52.388;13.390;2022-08-01T10:20:53;100883.66;;;20.53;92.64
36092;BME280;22147;52.388;13.390;2022-08-01T10:23:26;100892.53;;;20.55;94.12
36092;BME280;22147;52.388;13.390;2022-08-01T10:26:07;100892.41;;;20.37;94.50
36092;BME280;22147;52.388;13.390;2022-08-01T10:28:38;100888.41;;;20.42;95.19
36092;BME280;22147;52.388;13.390;2022-08-01T10:31:08;100881.59;;;20.46;92.81
36092;BME280;22147;52.388;13.390;2022-08-01T10:33:40;100883.69;;;20.57;92.30
36092;BME280;22147;52.388;13.390;2022-08-01T10:36:21;100883.47;;;20.87;91.11
36092;BME280;22147;52.388;13.390;2022-08-01T10:38:53;100877.50;;;20.96;90.70
36092;BME280;22147;52.388;13.390;2022-08-01T10:41:24;100885.59;;;21.04;89.94
36092;BME280;22147;52.388;13.390;2022-08-01T10:43:54;100873.97;;;21.20;89.46
36092;BME280;22147;52.388;13.390;2022-08-01T10:46:22;100878.81;;;21.23;89.56
36092;BME280;22147;52.388;13.390;2022-08-01T10:49:02;100879.59;;;21.17;90.05
36092;BME280;22147;52.388;13.390;2022-08-01T10:51:37;100882.81;;;21.11;89.67
36092;BME280;22147;52.388;13.390;2022-08-01T10:54:25;100888.44;;;21.11;88.91
36092;BME280;22147;52.388;13.390;2022-08-01T10:56:53;100879.16;;;21.07;90.18
36092;BME280;22147;52.388;13.390;2022-08-01T10:59:28;100882.78;;;21.08;90.05
36092;BME280;22147;52.388;13.390;2022-08-01T11:02:34;100888.44;;;21.04;90.16
36092;BME280;22147;52.388;13.390;2022-08-01T11:05:21;100890.00;;;20.98;90.40
36092;BME280;22147;52.388;13.390;2022-08-01T11:07:54;100887.63;;;21.07;90.47
36092;BME280;22147;52.388;13.390;2022-08-01T11:10:39;100898.56;;;21.20;88.78
36092;BME280;22147;52.388;13.390;2022-08-01T11:13:11;100897.41;;;21.31;87.75
36092;BME280;22147;52.388;13.390;2022-08-01T11:15:41;100897.09;;;21.47;87.43
36092;BME280;22147;52.388;13.390;2022-08-01T11:18:31;100895.94;;;21.66;85.34
36092;BME280;22147;52.388;13.390;2022-08-01T11:21:04;100898.75;;;21.73;85.81
36092;BME280;22147;52.388;13.390;2022-08-01T11:23:51;100891.13;;;21.95;85.76
36092;BME280;22147;52.388;13.390;2022-08-01T11:26:21;100899.22;;;22.04;84.07
36092;BME280;22147;52.388;13.390;2022-08-01T11:29:22;100899.59;;;21.88;83.61
36092;BME280;22147;52.388;13.390;2022-08-01T11:31:50;100907.25;;;21.70;85.06
36092;BME280;22147;52.388;13.390;2022-08-01T11:34:18;100897.03;;;21.37;85.80
36092;BME280;22147;52.388;13.390;2022-08-01T11:36:47;100909.09;;;21.30;87.82
36092;BME280;22147;52.388;13.390;2022-08-01T11:39:25;100906.25;;;21.19;86.58
36092;BME280;22147;52.388;13.390;2022-08-01T11:41:52;100915.78;;;20.93;89.64
36092;BME280;22147;52.388;13.390;2022-08-01T11:44:23;100915.28;;;20.77;89.20
36092;BME280;22147;52.388;13.390;2022-08-01T11:47:07;100916.88;;;20.70;89.09
36092;BME280;22147;52.388;13.390;2022-08-01T11:52:29;100918.56;;;20.86;88.91
36092;BME280;22147;52.388;13.390;2022-08-01T11:55:08;100931.56;;;20.98;86.91
36092;BME280;22147;52.388;13.390;2022-08-01T11:57:38;100921.94;;;21.13;87.22
36092;BME280;22147;52.388;13.390;2022-08-01T12:00:14;100920.75;;;21.18;86.50
36092;BME280;22147;52.388;13.390;2022-08-01T12:02:46;100932.03;;;21.18;86.16
36092;BME280;22147;52.388;13.390;2022-08-01T12:05:25;100931.25;;;21.21;87.70
36092;BME280;22147;52.388;13.390;2022-08-01T12:07:58;100929.63;;;21.20;89.70
36092;BME280;22147;52.388;13.390;2022-08-01T12:10:34;100938.09;;;21.12;90.08
36092;BME280;22147;52.388;13.390;2022-08-01T12:13:15;100926.88;;;21.34;89.35
36092;BME280;22147;52.388;13.390;2022-08-01T12:15:45;100932.22;;;21.61;87.97
36092;BME280;22147;52.388;13.390;2022-08-01T12:18:13;100929.47;;;21.79;87.41
36092;BME280;22147;52.388;13.390;2022-08-01T12:20:44;100929.50;;;22.18;86.40
36092;BME280;22147;52.388;13.390;2022-08-01T12:23:23;100921.88;;;22.36;82.83
36092;BME280;22147;52.388;13.390;2022-08-01T12:25:53;100929.16;;;22.45;82.99
36092;BME280;22147;52.388;13.390;2022-08-01T12:28:21;100919.44;;;22.35;81.28
36092;BME280;22147;52.388;13.390;2022-08-01T12:30:50;100929.56;;;22.47;82.57
36092;BME280;22147;52.388;13.390;2022-08-01T12:33:19;100925.09;;;22.53;80.21
36092;BME280;22147;52.388;13.390;2022-08-01T12:35:47;100925.50;;;22.55;81.53
36092;BME280;22147;52.388;13.390;2022-08-01T12:38:21;100934.78;;;22.70;80.33
36092;BME280;22147;52.388;13.390;2022-08-01T12:40:49;100918.22;;;22.61;79.98
36092;BME280;22147;52.388;13.390;2022-08-01T12:43:21;100915.78;;;22.67;79.46
36092;BME280;22147;52.388;13.390;2022-08-01T12:45:58;100921.84;;;22.65;79.66
36092;BME280;22147;52.388;13.390;2022-08-01T12:48:27;100924.69;;;22.62;80.30
36092;BME280;22147;52.388;13.390;2022-08-01T12:50:59;100919.81;;;22.73;78.92
36092;BME280;22147;52.388;13.390;2022-08-01T12:53:28;100929.88;;;22.95;78.93
36092;BME280;22147;52.388;13.390;2022-08-01T12:56:06;100922.59;;;22.98;78.78
36092;BME280;22147;52.388;13.390;2022-08-01T12:58:35;100924.59;;;23.12;76.65
36092;BME280;22147;52.388;13.390;2022-08-01T13:01:06;100917.72;;;23.20;75.83
36092;BME280;22147;52.388;13.390;2022-08-01T13:03:35;100917.16;;;23.47;75.32
36092;BME280;22147;52.388;13.390;2022-08-01T13:06:15;100922.78;;;23.57;74.05
36092;BME280;22147;52.388;13.390;2022-08-01T13:08:44;100911.88;;;23.56;74.10
36092;BME280;22147;52.388;13.390;2022-08-01T13:11:15;100908.97;;;23.67;73.93
36092;BME280;22147;52.388;13.390;2022-08-01T13:13:50;100918.16;;;23.92;73.24